Rome Urbe Air Force Base, Italy

7:50 AM CEST on September 15, 2014 (GMT +0200)
IRMROMA12 | Change Station
CLOSE
Current Station
Personal Weather Station
Location: Roma / Trieste-Salario, RM
Elevation: 148 ft
Nearby Weather Stations

Elev 148 ft 41.94 °N, 12.51 °E | Updated 5 minutes ago

Partly Cloudy
Partly Cloudy
60.6 °F
Feels Like 60.6 °F
N
1.9
Wind Variable Wind from NW
Gusts 3.8 mph

Today
High -- | Low -- °F
--% Chance of Precip.
Yesterday
High -- | Low -- °F
Precip. -- in
6:49 AM 7:19 PM
Waning Gibbous, 58% visible
Pressure 29.98 in
Visibility 6.2 miles
Clouds Few 7000 ft
Dew Point 59 °F
Humidity 93%
Rainfall 0.00 in
Snow Depth Not available.
UV 0 out of 12
Pollen Not available.
Air Quality Not available.
Flu Activity Not available.
METAR LIRA 150515Z 04001KT 9999 FEW070 16/15 Q1015

More Conditions Fewer Conditions

Pressure 29.98 in
Visibility 6.2 miles
Clouds Few 7000 ft
Dew Point 59 °F
Humidity 93%
Rainfall 0.00 in
Snow Depth Not available.
UV 0 out of 12
Pollen Not available.
Air Quality Not available.
Flu Activity Not available.
METAR LIRA 150515Z 04001KT 9999 FEW070 16/15 Q1015

More Conditions Fewer Conditions

10-Day Weather Forecast

Almanac

Astronomy

Sep. 15, 2014 Rise Set
Actual Time 6:49 AM CEST 7:19 PM CEST
Civil Twilight 6:21 AM CEST 7:47 PM CEST
Nautical Twilight 5:48 AM CEST 8:20 PM CEST
Astronomical Twilight 5:14 AM CEST 8:54 PM CEST
Moon 11:42 PM CEST 1:40 PM CEST
Length of Visible Light 13h 26m
Length of Day
12h 30m
Tomorrow will be 2m 46s shorter.
Waning Gibbous, 58% of the Moon is Illuminated
Today
Waning Gibbous
Sep 15
Last Quarter
Sep 24
New
Oct 1
First Quarter
Oct 8
Full

Yesterday's Extremes

Country Highs Country Lows

Community

WunderPhotos

Upload Photos

1,753,416 photos uploaded!

WunderBlogs® & News

Nearby

Snow Depth

Not available.

Earthquake Activity

City Distance Mag. Time & Date
No recent earthquake activity has been reported nearby.
Minimum magnitude displayed is 2.5.

Coastal Water Temperatures

Place Temperature
No Stations Reporting

Nearby Weather Stations